Station Historical Data
Daily Summary for July 26, 2017 Units:  Metric    English   Both
« Previous Day
Next Day »
Daily Weekly Monthly Yearly Custom
  High: Low: Average:
Temperature: 25.4 °C 11.8 °C 19 °C
Dew Point: 18.1 °C 10.6 °C 14.3 °C
Humidity: 92% 60% 75%
Wind Speed: 11.3km/h 0km/h 2.6km/h
Wind Gust: 17.7km/h - -
Wind- - WSW
Pressure: 1023.6 hPa 1015.5 hPa -
Precipitation: 0 mm    
Historical Graphs
 
 
Tabular Data for July 26, 2017
Time Temperature Dew Point Pressure Wind Wind Speed Wind Gust Humidity Rainfall Rate (Hourly)
00:00 14.6 °C 12.4 °C 1023.6 hPa Calm     87% 0 mm
00:05 14.6 °C 12.4 °C 1023.6 hPa Calm     87% 0 mm
00:10 14.4 °C 12.3 °C 1023.2 hPa Calm     87% 0 mm
00:15 14.4 °C 12.4 °C 1023.2 hPa Calm     88% 0 mm
00:20 14.5 °C 12.6 °C 1023.2 hPa Calm     88% 0 mm
00:25 14.7 °C 12.8 °C 1023.2 hPa Calm     88% 0 mm
00:30 14.8 °C 12.8 °C 1023.2 hPa Calm     88% 0 mm
00:35 14.6 °C 12.7 °C 1023.2 hPa Calm     88% 0 mm
00:40 14.6 °C 12.7 °C 1023.2 hPa Calm     88% 0 mm
00:45 14.6 °C 12.6 °C 1023.2 hPa Calm     88% 0 mm
00:50 14.6 °C 12.6 °C 1023.2 hPa Calm     88% 0 mm
00:55 14.4 °C 12.5 °C 1023.2 hPa Calm     88% 0 mm
01:00 14.4 °C 12.6 °C 1023.2 hPa Calm     89% 0 mm
01:05 14.4 °C 12.6 °C 1023.2 hPa Calm     89% 0 mm
01:10 14.3 °C 12.6 °C 1023.2 hPa Calm     89% 0 mm
01:15 14.2 °C 12.4 °C 1023.2 hPa Calm     89% 0 mm
01:20 14.1 °C 12.3 °C 1023.2 hPa Calm     89% 0 mm
01:25 13.9 °C 12.1 °C 1022.9 hPa Calm     89% 0 mm
01:30 13.9 °C 12.3 °C 1022.9 hPa Calm     90% 0 mm
01:35 13.8 °C 12.2 °C 1022.9 hPa Calm     90% 0 mm
01:40 13.7 °C 12.1 °C 1023.2 hPa Calm     90% 0 mm
01:45 13.6 °C 11.9 °C 1023.2 hPa Calm     90% 0 mm
01:50 13.4 °C 11.8 °C 1023.2 hPa Calm     90% 0 mm
01:55 13.3 °C 11.7 °C 1023.2 hPa Calm     90% 0 mm
02:00 13.4 °C 12 °C 1023.2 hPa Calm     91% 0 mm
02:05 13.5 °C 12.1 °C 1023.2 hPa Calm     91% 0 mm
02:10 13.6 °C 12.1 °C 1022.9 hPa Calm     91% 0 mm
02:15 13.6 °C 12.1 °C 1022.9 hPa Calm     91% 0 mm
02:20 13.5 °C 12.1 °C 1022.9 hPa Calm     91% 0 mm
02:25 13.4 °C 11.9 °C 1022.9 hPa Calm     91% 0 mm
02:30 13.3 °C 11.9 °C 1022.9 hPa Calm     91% 0 mm
02:35 13.2 °C 11.7 °C 1022.9 hPa Calm     91% 0 mm
02:40 13.3 °C 11.8 °C 1022.9 hPa Calm     91% 0 mm
02:45 13.2 °C 11.8 °C 1022.9 hPa Calm     91% 0 mm
02:50 13.2 °C 11.8 °C 1022.9 hPa Calm     91% 0 mm
02:55 13.2 °C 11.7 °C 1022.6 hPa Calm     91% 0 mm
03:00 13.2 °C 11.7 °C 1022.6 hPa Calm     91% 0 mm
03:05 13.2 °C 11.7 °C 1022.6 hPa Calm     91% 0 mm
03:10 13.1 °C 11.6 °C 1022.6 hPa Calm     91% 0 mm
03:15 13 °C 11.6 °C 1022.6 hPa Calm     91% 0 mm
03:20 13 °C 11.6 °C 1022.6 hPa Calm     91% 0 mm
03:25 12.9 °C 11.4 °C 1022.6 hPa Calm     91% 0 mm
03:30 12.8 °C 11.4 °C 1022.6 hPa Calm     91% 0 mm
03:35 12.7 °C 11.2 °C 1022.6 hPa Calm     91% 0 mm
03:40 12.6 °C 11.2 °C 1022.6 hPa Calm     91% 0 mm
03:45 12.5 °C 11.1 °C 1022.6 hPa Calm     91% 0 mm
03:50 12.5 °C 11.1 °C 1022.6 hPa Calm     91% 0 mm
03:55 12.4 °C 11.2 °C 1022.6 hPa Calm     92% 0 mm
04:00 12.4 °C 10.9 °C 1022.6 hPa Calm     91% 0 mm
04:05 12.4 °C 11 °C 1022.6 hPa Calm     91% 0 mm
04:10 12.4 °C 10.9 °C 1022.6 hPa Calm     91% 0 mm
04:15 12.3 °C 11.1 °C 1022.6 hPa Calm     92% 0 mm
04:20 12.4 °C 11.1 °C 1022.6 hPa Calm     92% 0 mm
04:25 12.3 °C 11.1 °C 1022.9 hPa Calm     92% 0 mm
04:30 12.3 °C 11 °C 1022.6 hPa Calm     92% 0 mm
04:35 12.3 °C 11 °C 1022.9 hPa Calm     92% 0 mm
04:40 12.3 °C 11 °C 1022.6 hPa Calm     92% 0 mm
04:45 12.3 °C 11 °C 1022.9 hPa Calm     92% 0 mm
04:50 12.3 °C 11 °C 1022.9 hPa Calm     92% 0 mm
04:55 12.3 °C 11 °C 1022.6 hPa Calm     92% 0 mm
05:00 12.3 °C 11 °C 1022.6 hPa Calm     92% 0 mm
05:05 12.3 °C 11 °C 1022.6 hPa Calm     92% 0 mm
05:10 12.2 °C 10.9 °C 1022.6 hPa Calm     92% 0 mm
05:15 12.3 °C 11 °C 1022.9 hPa Calm     92% 0 mm
05:20 12.2 °C 10.9 °C 1022.9 hPa Calm     92% 0 mm
05:25 12.1 °C 10.8 °C 1022.9 hPa Calm     92% 0 mm
05:30 11.9 °C 10.6 °C 1022.9 hPa Calm     92% 0 mm
05:35 12 °C 10.7 °C 1022.9 hPa Calm     92% 0 mm
05:40 12 °C 10.7 °C 1022.9 hPa Calm     92% 0 mm
05:45 11.9 °C 10.7 °C 1023.2 hPa Calm     92% 0 mm
05:50 11.9 °C 10.7 °C 1022.9 hPa Calm     92% 0 mm
05:55 11.9 °C 10.7 °C 1022.9 hPa Calm     92% 0 mm
06:00 11.9 °C 10.6 °C 1022.9 hPa Calm     92% 0 mm
06:05 11.9 °C 10.6 °C 1023.2 hPa Calm     92% 0 mm
06:10 11.8 °C 10.6 °C 1023.2 hPa Calm     92% 0 mm
06:15 11.8 °C 10.6 °C 1023.6 hPa Calm     92% 0 mm
06:20 11.8 °C 10.6 °C 1023.2 hPa Calm     92% 0 mm
06:25 11.9 °C 10.6 °C 1023.2 hPa Calm     92% 0 mm
06:30 12 °C 10.7 °C 1023.2 hPa Calm     92% 0 mm
06:35 12.1 °C 10.8 °C 1022.9 hPa Calm     92% 0 mm
06:40 12.1 °C 10.8 °C 1022.9 hPa Calm     92% 0 mm
06:45 12.2 °C 10.9 °C 1023.2 hPa Calm     92% 0 mm
06:50 12.3 °C 11.1 °C 1023.2 hPa Calm     92% 0 mm
06:55 12.5 °C 11.2 °C 1023.2 hPa Calm     92% 0 mm
07:00 12.7 °C 11.2 °C 1022.9 hPa Calm     91% 0 mm
07:05 12.8 °C 11.4 °C 1022.9 hPa Calm     91% 0 mm
07:10 12.9 °C 11.5 °C 1022.9 hPa Calm     91% 0 mm
07:15 13.2 °C 11.6 °C 1022.6 hPa Calm   4.8 km/h 90% 0 mm
07:20 13.4 °C 11.8 °C 1022.6 hPa ESE 1.6 km/h 4.8 km/h 90% 0 mm
07:25 13.7 °C 11.9 °C 1022.6 hPa SSE 4.8 km/h 8 km/h 89% 0 mm
07:30 13.8 °C 11.8 °C 1022.6 hPa Calm   6.4 km/h 88% 0 mm
07:35 13.9 °C 12 °C 1022.6 hPa SSE 1.6 km/h 6.4 km/h 88% 0 mm
07:40 14.1 °C 11.9 °C 1022.2 hPa ESE 3.2 km/h 8 km/h 87% 0 mm
07:45 14.2 °C 12.1 °C 1022.6 hPa SE 1.6 km/h 6.4 km/h 87% 0 mm
07:50 14.4 °C 12.1 °C 1022.6 hPa East 3.2 km/h 4.8 km/h 86% 0 mm
07:55 14.6 °C 12.2 °C 1022.9 hPa Calm   4.8 km/h 86% 0 mm
08:00 14.8 °C 12.3 °C 1022.6 hPa SE 1.6 km/h 3.2 km/h 85% 0 mm
08:05 15.1 °C 12.6 °C 1022.6 hPa Calm   3.2 km/h 85% 0 mm
08:10 15.3 °C 12.8 °C 1022.6 hPa Calm   3.2 km/h 85% 0 mm
08:15 15.5 °C 12.6 °C 1022.6 hPa ENE 1.6 km/h 4.8 km/h 83% 0 mm
08:20 15.7 °C 12.8 °C 1022.6 hPa Calm   4.8 km/h 83% 0 mm
08:25 16.1 °C 12.8 °C 1022.6 hPa SSE 4.8 km/h 6.4 km/h 81% 0 mm
08:30 16.3 °C 12.8 °C 1022.6 hPa East 1.6 km/h 4.8 km/h 80% 0 mm
08:35 16.4 °C 13.1 °C 1022.6 hPa ESE 1.6 km/h 4.8 km/h 81% 0 mm
08:40 16.9 °C 13.6 °C 1022.6 hPa ESE 1.6 km/h 4.8 km/h 81% 0 mm
08:45 17.2 °C 13.3 °C 1022.6 hPa SE 1.6 km/h 4.8 km/h 78% 0 mm
08:50 17.3 °C 13.3 °C 1022.6 hPa Calm   3.2 km/h 77% 0 mm
08:55 17.7 °C 13.6 °C 1022.6 hPa Calm   3.2 km/h 77% 0 mm
09:00 18 °C 13.7 °C 1022.6 hPa WSW 4.8 km/h 4.8 km/h 76% 0 mm
09:05 17.8 °C 13.3 °C 1022.2 hPa SW 1.6 km/h 4.8 km/h 75% 0 mm
09:10 17.8 °C 13.3 °C 1022.2 hPa WSW 1.6 km/h 4.8 km/h 75% 0 mm
09:15 18.4 °C 13.9 °C 1022.2 hPa Calm   4.8 km/h 75% 0 mm
09:20 18.8 °C 13.8 °C 1022.2 hPa SW 1.6 km/h 4.8 km/h 73% 0 mm
09:25 18.7 °C 13.3 °C 1021.9 hPa WNW 1.6 km/h 4.8 km/h 71% 0 mm
09:30 19.1 °C 13.7 °C 1022.2 hPa West 1.6 km/h 6.4 km/h 71% 0 mm
09:35 19.6 °C 13.8 °C 1022.2 hPa West 3.2 km/h 6.4 km/h 69% 0 mm
09:40 19.7 °C 13.8 °C 1022.2 hPa West 1.6 km/h 6.4 km/h 69% 0 mm
09:45 19.6 °C 13.5 °C 1021.9 hPa SSW 1.6 km/h 6.4 km/h 68% 0 mm
09:50 19.3 °C 13.7 °C 1021.6 hPa SSE 1.6 km/h 6.4 km/h 70% 0 mm
09:55 19.5 °C 13.4 °C 1021.6 hPa SSE 3.2 km/h 6.4 km/h 68% 0 mm
10:00 20.3 °C 14.6 °C 1021.6 hPa South 3.2 km/h 6.4 km/h 70% 0 mm
10:05 20.3 °C 13.7 °C 1021.6 hPa Calm   9.7 km/h 66% 0 mm
10:10 20.2 °C 14.1 °C 1021.6 hPa SW 3.2 km/h 8 km/h 68% 0 mm
10:15 20.4 °C 14.3 °C 1021.6 hPa SW 6.4 km/h 6.4 km/h 68% 0 mm
10:20 20.7 °C 14.6 °C 1021.6 hPa WSW 4.8 km/h 8 km/h 68% 0 mm
10:25 20.7 °C 14.3 °C 1021.6 hPa SSW 8 km/h 8 km/h 67% 0 mm
10:30 20.7 °C 14.2 °C 1021.6 hPa WSW 4.8 km/h 8 km/h 66% 0 mm
10:35 20.9 °C 14.1 °C 1021.6 hPa SSW 4.8 km/h 9.7 km/h 65% 0 mm
10:40 20.8 °C 14 °C 1021.6 hPa SSW 3.2 km/h 9.7 km/h 65% 0 mm
10:45 21.2 °C 14.6 °C 1021.6 hPa SW 3.2 km/h 9.7 km/h 66% 0 mm
10:50 21.3 °C 14.7 °C 1021.9 hPa ESE 1.6 km/h 9.7 km/h 66% 0 mm
10:55 21.5 °C 14.7 °C 1021.9 hPa West 6.4 km/h 9.7 km/h 65% 0 mm
11:00 21.4 °C 14.1 °C 1021.9 hPa SW 4.8 km/h 12.9 km/h 63% 0 mm
11:05 21.6 °C 14.2 °C 1021.9 hPa WSW 6.4 km/h 12.9 km/h 63% 0 mm
11:10 21.4 °C 14.1 °C 1021.9 hPa West 6.4 km/h 14.5 km/h 63% 0 mm
11:15 21.3 °C 13.9 °C 1021.9 hPa WSW 6.4 km/h 14.5 km/h 63% 0 mm
11:20 21.6 °C 13.9 °C 1021.9 hPa SW 6.4 km/h 17.7 km/h 62% 0 mm
11:25 21.5 °C 14.2 °C 1021.6 hPa WSW 6.4 km/h 17.7 km/h 63% 0 mm
11:30 21.6 °C 14.4 °C 1021.6 hPa WNW 3.2 km/h 11.3 km/h 64% 0 mm
11:35 21.5 °C 14.4 °C 1021.6 hPa WSW 6.4 km/h 11.3 km/h 64% 0 mm
11:40 21.5 °C 14.4 °C 1021.6 hPa SW 6.4 km/h 9.7 km/h 64% 0 mm
11:45 21.4 °C 14.1 °C 1021.6 hPa SW 1.6 km/h 12.9 km/h 63% 0 mm
11:50 21.8 °C 14.4 °C 1021.2 hPa WSW 6.4 km/h 12.9 km/h 63% 0 mm
11:55 21.7 °C 14.6 °C 1021.2 hPa NNW 3.2 km/h 9.7 km/h 64% 0 mm
12:00 21.8 °C 14.9 °C 1021.2 hPa WNW 6.4 km/h 14.5 km/h 65% 0 mm
12:05 21.8 °C 14.7 °C 1021.2 hPa West 6.4 km/h 14.5 km/h 64% 0 mm
12:10 21.6 °C 14.5 °C 1020.9 hPa West 6.4 km/h 16.1 km/h 64% 0 mm
12:15 21.7 °C 14.8 °C 1020.9 hPa West 6.4 km/h 16.1 km/h 65% 0 mm
12:20 21.6 °C 13.9 °C 1020.9 hPa WSW 4.8 km/h 9.7 km/h 62% 0 mm
12:25 21.4 °C 14.3 °C 1020.9 hPa West 3.2 km/h 8 km/h 64% 0 mm
12:30 21.8 °C 14.7 °C 1020.9 hPa WNW 1.6 km/h 9.7 km/h 64% 0 mm
12:35 21.7 °C 14.3 °C 1020.9 hPa West 4.8 km/h 11.3 km/h 63% 0 mm
12:40 21.9 °C 14.5 °C 1020.9 hPa SW 3.2 km/h 11.3 km/h 63% 0 mm
12:45 22 °C 14.1 °C 1020.9 hPa SSW 4.8 km/h 11.3 km/h 61% 0 mm
12:50 22.1 °C 15 °C 1020.9 hPa WSW 4.8 km/h 12.9 km/h 64% 0 mm
12:55 22.3 °C 14.1 °C 1020.9 hPa West 6.4 km/h 11.3 km/h 60% 0 mm
13:00 22.6 °C 14.9 °C 1020.9 hPa WSW 4.8 km/h 11.3 km/h 62% 0 mm
13:05 22.3 °C 14.9 °C 1020.9 hPa WSW 4.8 km/h 9.7 km/h 63% 0 mm
13:10 22.7 °C 15.3 °C 1020.9 hPa West 4.8 km/h 9.7 km/h 63% 0 mm
13:15 22.8 °C 15.4 °C 1020.5 hPa West 1.6 km/h 9.7 km/h 63% 0 mm
13:20 23 °C 15.1 °C 1020.5 hPa WSW 4.8 km/h 11.3 km/h 61% 0 mm
13:25 23.1 °C 14.9 °C 1020.5 hPa SSW 6.4 km/h 16.1 km/h 60% 0 mm
13:30 22.9 °C 15.2 °C 1020.5 hPa WSW 11.3 km/h 16.1 km/h 62% 0 mm
13:35 23.1 °C 15.7 °C 1020.5 hPa WNW 3.2 km/h 11.3 km/h 63% 0 mm
13:40 23.2 °C 16.3 °C 1020.2 hPa WSW 6.4 km/h 14.5 km/h 65% 0 mm
13:45 23.4 °C 15.4 °C 1020.2 hPa WSW 6.4 km/h 14.5 km/h 61% 0 mm
13:50 23.2 °C 15.7 °C 1019.9 hPa WSW 6.4 km/h 9.7 km/h 63% 0 mm
13:55 23.2 °C 15.7 °C 1019.5 hPa WSW 8 km/h 9.7 km/h 63% 0 mm
14:00 23.1 °C 15.9 °C 1019.5 hPa SW 3.2 km/h 12.9 km/h 64% 0 mm
14:05 23.7 °C 15.9 °C 1019.5 hPa SW 4.8 km/h 12.9 km/h 62% 0 mm
14:10 23.6 °C 16.4 °C 1019.2 hPa SSW 9.7 km/h 12.9 km/h 64% 0 mm
14:15 24.2 °C 16.5 °C 1019.2 hPa SSE 1.6 km/h 9.7 km/h 62% 0 mm
14:20 24.5 °C 17 °C 1018.8 hPa SSW 4.8 km/h 8 km/h 63% 0 mm
14:25 24.6 °C 16.6 °C 1018.8 hPa West 1.6 km/h 11.3 km/h 61% 0 mm
14:30 24.7 °C 16.9 °C 1018.8 hPa South 4.8 km/h 12.9 km/h 62% 0 mm
14:35 24.8 °C 17.1 °C 1018.8 hPa South 4.8 km/h 12.9 km/h 62% 0 mm
14:40 25 °C 17.4 °C 1018.5 hPa SSW 6.4 km/h 16.1 km/h 63% 0 mm
14:45 24.9 °C 16.9 °C 1018.5 hPa SW 11.3 km/h 12.9 km/h 61% 0 mm
14:50 25 °C 16.9 °C 1018.5 hPa SW 4.8 km/h 16.1 km/h 61% 0 mm
14:55 25.1 °C 17.1 °C 1018.5 hPa South 3.2 km/h 11.3 km/h 61% 0 mm
15:00 24.7 °C 16.7 °C 1018.2 hPa SSW 4.8 km/h 11.3 km/h 61% 0 mm
15:05 24.6 °C 16.6 °C 1018.5 hPa WSW 6.4 km/h 9.7 km/h 61% 0 mm
15:10 25.4 °C 18.1 °C 1018.2 hPa SSE 6.4 km/h 9.7 km/h 64% 0 mm
15:15 25.2 °C 16.8 °C 1018.2 hPa SW 6.4 km/h 11.3 km/h 60% 0 mm
15:20 24.4 °C 16.4 °C 1018.2 hPa West 1.6 km/h 11.3 km/h 61% 0 mm
15:25 24.3 °C 16.3 °C 1018.2 hPa WSW 4.8 km/h 11.3 km/h 61% 0 mm
15:30 24.2 °C 16.5 °C 1018.2 hPa WSW 4.8 km/h 11.3 km/h 62% 0 mm
15:35 24.1 °C 16.6 °C 1018.2 hPa WSW 4.8 km/h 11.3 km/h 63% 0 mm
15:40 24.1 °C 16.6 °C 1018.2 hPa WSW 3.2 km/h 9.7 km/h 63% 0 mm
15:45 24.2 °C 17.2 °C 1017.8 hPa West 1.6 km/h 9.7 km/h 65% 0 mm
15:50 24.3 °C 17.3 °C 1017.8 hPa WSW 3.2 km/h 9.7 km/h 65% 0 mm
15:55 24.2 °C 16.7 °C 1018.2 hPa WSW 4.8 km/h 9.7 km/h 63% 0 mm
16:00 24.4 °C 16.7 °C 1017.8 hPa West 4.8 km/h 11.3 km/h 62% 0 mm
16:05 24.5 °C 17.2 °C 1017.8 hPa West 4.8 km/h 11.3 km/h 64% 0 mm
16:10 24.6 °C 17.1 °C 1017.8 hPa Calm   8 km/h 63% 0 mm
16:15 24.6 °C 16.8 °C 1017.8 hPa NNW 3.2 km/h 8 km/h 62% 0 mm
16:20 24.8 °C 17.5 °C 1017.8 hPa West 3.2 km/h 8 km/h 64% 0 mm
16:25 24.6 °C 16.8 °C 1017.8 hPa West 3.2 km/h 8 km/h 62% 0 mm
16:30 24.8 °C 16.8 °C 1017.8 hPa West 4.8 km/h 12.9 km/h 61% 0 mm
16:35 24.7 °C 17.2 °C 1017.8 hPa WSW 4.8 km/h 12.9 km/h 63% 0 mm
16:40 24.8 °C 17.3 °C 1017.8 hPa NW 8 km/h 11.3 km/h 63% 0 mm
16:45 24.4 °C 16.9 °C 1017.8 hPa NW 6.4 km/h 8 km/h 63% 0 mm
16:50 24.4 °C 17.1 °C 1017.5 hPa Calm   9.7 km/h 64% 0 mm
16:55 24.6 °C 17.6 °C 1017.5 hPa WNW 3.2 km/h 9.7 km/h 65% 0 mm
17:00 24.2 °C 17.2 °C 1017.5 hPa West 3.2 km/h 9.7 km/h 65% 0 mm
17:05 24.2 °C 17.2 °C 1017.5 hPa West 3.2 km/h 9.7 km/h 65% 0 mm
17:10 24 °C 17.3 °C 1017.5 hPa WNW 3.2 km/h 8 km/h 66% 0 mm
17:15 24.1 °C 17.1 °C 1017.5 hPa WNW 4.8 km/h 9.7 km/h 65% 0 mm
17:20 23.9 °C 16.9 °C 1017.5 hPa WNW 6.4 km/h 11.3 km/h 65% 0 mm
17:25 24 °C 17.5 °C 1017.5 hPa West 1.6 km/h 9.7 km/h 67% 0 mm
17:30 23.9 °C 16.9 °C 1017.5 hPa NNW 1.6 km/h 8 km/h 65% 0 mm
17:35 23.9 °C 17.4 °C 1017.5 hPa WNW 4.8 km/h 9.7 km/h 67% 0 mm
17:40 23.9 °C 17.2 °C 1017.5 hPa West 4.8 km/h 9.7 km/h 66% 0 mm
17:45 23.8 °C 17.1 °C 1017.5 hPa WNW 8 km/h 11.3 km/h 66% 0 mm
17:50 23.7 °C 17.2 °C 1017.5 hPa WNW 1.6 km/h 9.7 km/h 67% 0 mm
17:55 23.7 °C 17.4 °C 1017.5 hPa WNW 4.8 km/h 11.3 km/h 68% 0 mm
18:00 23.7 °C 17.2 °C 1017.5 hPa West 1.6 km/h 8 km/h 67% 0 mm
18:05 23.7 °C 17.2 °C 1017.5 hPa West 3.2 km/h 8 km/h 67% 0 mm
18:10 23.7 °C 17.4 °C 1017.5 hPa West 3.2 km/h 8 km/h 68% 0 mm
18:15 23.6 °C 17.6 °C 1017.5 hPa West 6.4 km/h 8 km/h 69% 0 mm
18:20 23.6 °C 17.3 °C 1017.5 hPa West 8 km/h 9.7 km/h 68% 0 mm
18:25 23.4 °C 17.2 °C 1017.5 hPa WNW 6.4 km/h 12.9 km/h 68% 0 mm
18:30 23.3 °C 17.1 °C 1017.8 hPa WNW 4.8 km/h 12.9 km/h 68% 0 mm
18:35 23.3 °C 17.3 °C 1017.8 hPa WNW 4.8 km/h 9.7 km/h 69% 0 mm
18:40 23.2 °C 17.2 °C 1017.8 hPa WNW 4.8 km/h 9.7 km/h 69% 0 mm
18:45 23.2 °C 16.9 °C 1017.8 hPa West 4.8 km/h 9.7 km/h 68% 0 mm
18:50 23.1 °C 16.9 °C 1017.8 hPa WNW 8 km/h 11.3 km/h 68% 0 mm
18:55 23.1 °C 16.8 °C 1017.8 hPa WNW 6.4 km/h 14.5 km/h 68% 0 mm
19:00 23 °C 16.8 °C 1017.8 hPa WNW 8 km/h 11.3 km/h 68% 0 mm
19:05 22.9 °C 16.7 °C 1018.2 hPa WNW 4.8 km/h 9.7 km/h 68% 0 mm
19:10 22.9 °C 16.5 °C 1018.2 hPa West 4.8 km/h 12.9 km/h 67% 0 mm
19:15 22.9 °C 16.4 °C 1018.2 hPa WNW 6.4 km/h 9.7 km/h 67% 0 mm
19:20 22.8 °C 16.4 °C 1018.2 hPa WNW 8 km/h 9.7 km/h 67% 0 mm
19:25 22.8 °C 16.3 °C 1018.2 hPa West 4.8 km/h 11.3 km/h 67% 0 mm
19:30 22.8 °C 16.2 °C 1018.2 hPa West 4.8 km/h 11.3 km/h 66% 0 mm
19:35 22.9 °C 16.5 °C 1018.2 hPa West 3.2 km/h 8 km/h 67% 0 mm
19:40 22.9 °C 15.9 °C 1017.8 hPa West 3.2 km/h 9.7 km/h 65% 0 mm
19:45 22.8 °C 15.8 °C 1017.8 hPa WNW 1.6 km/h 9.7 km/h 65% 0 mm
19:50 22.7 °C 15.7 °C 1017.8 hPa Calm   6.4 km/h 65% 0 mm
19:55 22.7 °C 15.5 °C 1017.8 hPa West 1.6 km/h 6.4 km/h 64% 0 mm
20:05 22.4 °C 15.6 °C 1017.8 hPa WNW 3.2 km/h 4.8 km/h 65% 0 mm
20:10 22.3 °C 15.4 °C 1018.2 hPa West 3.2 km/h 8 km/h 65% 0 mm
20:15 22.3 °C 15.2 °C 1018.2 hPa WSW 6.4 km/h 8 km/h 64% 0 mm
20:20 22.3 °C 15.2 °C 1018.2 hPa West 3.2 km/h 8 km/h 64% 0 mm
20:25 22.3 °C 15.1 °C 1018.2 hPa West 3.2 km/h 8 km/h 64% 0 mm
20:30 22.3 °C 15.1 °C 1017.8 hPa West 3.2 km/h 8 km/h 64% 0 mm
20:35 22.2 °C 15.1 °C 1017.8 hPa West 3.2 km/h 8 km/h 64% 0 mm
20:40 22.2 °C 15.1 °C 1017.8 hPa West 3.2 km/h 6.4 km/h 64% 0 mm
20:45 22.1 °C 15 °C 1017.8 hPa West 3.2 km/h 6.4 km/h 64% 0 mm
20:50 21.9 °C 14.8 °C 1017.8 hPa West 3.2 km/h 4.8 km/h 64% 0 mm
20:55 21.9 °C 14.8 °C 1017.5 hPa SW 3.2 km/h 6.4 km/h 64% 0 mm
21:00 21.8 °C 14.9 °C 1017.5 hPa Calm   4.8 km/h 65% 0 mm
21:05 21.8 °C 15.2 °C 1017.5 hPa Calm   3.2 km/h 66% 0 mm
21:10 21.7 °C 14.8 °C 1017.2 hPa SW 1.6 km/h 4.8 km/h 65% 0 mm
21:15 21.7 °C 15.1 °C 1016.8 hPa South 4.8 km/h 8 km/h 66% 0 mm
21:20 21.8 °C 15.8 °C 1017.2 hPa Calm   9.7 km/h 69% 0 mm
21:25 21.8 °C 16.3 °C 1017.2 hPa South 3.2 km/h 9.7 km/h 71% 0 mm
21:30 21.8 °C 16.5 °C 1017.2 hPa South 1.6 km/h 4.8 km/h 72% 0 mm
21:35 21.7 °C 16.8 °C 1016.8 hPa SSW 1.6 km/h 11.3 km/h 74% 0 mm
21:40 21.6 °C 16.9 °C 1016.8 hPa South 3.2 km/h 11.3 km/h 75% 0 mm
21:45 21.6 °C 17.2 °C 1016.8 hPa South 3.2 km/h 8 km/h 76% 0 mm
21:50 21.5 °C 17.1 °C 1016.5 hPa South 3.2 km/h 11.3 km/h 76% 0 mm
22:00 21.4 °C 17 °C 1015.8 hPa SE 8 km/h 17.7 km/h 76% 0 mm
22:05 21.3 °C 17.3 °C 1016.1 hPa SSW 6.4 km/h 14.5 km/h 78% 0 mm
22:10 21.1 °C 17.1 °C 1016.5 hPa SW 1.6 km/h 12.9 km/h 78% 0 mm
22:15 21 °C 17.2 °C 1016.1 hPa SW 4.8 km/h 8 km/h 79% 0 mm
22:20 20.9 °C 17.3 °C 1016.1 hPa SW 1.6 km/h 8 km/h 80% 0 mm
22:25 20.8 °C 17.3 °C 1016.1 hPa SSW 3.2 km/h 8 km/h 80% 0 mm
22:30 20.8 °C 17.2 °C 1016.1 hPa SW 1.6 km/h 9.7 km/h 80% 0 mm
22:35 20.8 °C 17.1 °C 1016.1 hPa Calm   8 km/h 79% 0 mm
22:40 20.8 °C 16.8 °C 1016.1 hPa SSW 1.6 km/h 8 km/h 78% 0 mm
22:45 20.8 °C 16.8 °C 1016.5 hPa WSW 1.6 km/h 3.2 km/h 78% 0 mm
22:50 20.8 °C 16.8 °C 1016.1 hPa WSW 1.6 km/h 4.8 km/h 78% 0 mm
22:55 20.8 °C 16.8 °C 1016.1 hPa Calm   4.8 km/h 78% 0 mm
23:00 20.8 °C 16.8 °C 1016.1 hPa Calm   4.8 km/h 78% 0 mm
23:05 20.7 °C 16.5 °C 1015.8 hPa SSW 3.2 km/h 11.3 km/h 77% 0 mm
23:10 20.7 °C 16.3 °C 1015.8 hPa SSW 3.2 km/h 8 km/h 76% 0 mm
23:15 20.7 °C 16.1 °C 1015.8 hPa SSW 1.6 km/h 8 km/h 75% 0 mm
23:20 20.7 °C 16.1 °C 1015.8 hPa SSW 3.2 km/h 8 km/h 75% 0 mm
23:25 20.7 °C 16.1 °C 1015.5 hPa SSW 3.2 km/h 8 km/h 75% 0 mm
23:30 20.7 °C 15.9 °C 1015.5 hPa SSW 3.2 km/h 9.7 km/h 74% 0 mm
23:35 20.7 °C 15.9 °C 1015.5 hPa SSW 1.6 km/h 8 km/h 74% 0 mm
23:40 20.7 °C 15.9 °C 1015.5 hPa SSW 3.2 km/h 12.9 km/h 74% 0 mm
23:45 20.7 °C 15.9 °C 1015.5 hPa SW 4.8 km/h 12.9 km/h 74% 0 mm
23:50 20.7 °C 15.9 °C 1015.5 hPa SW 1.6 km/h 6.4 km/h 74% 0 mm
23:55 20.6 °C 15.8 °C 1015.5 hPa SW 1.6 km/h 8 km/h 74% 0 mm
Buffalo, New York, USA
Compliments of Weather Underground - 2.5 mb